Time;durP1;ratioP1;P1;durP2;ratioP2;P2;SDS_P1;SDS_P2;PMS_P1;PMS_P2;Temp;Humidity;BMP_temperature;BMP_pressure;BME280_temperature;BME280_humidity;BME280_pressure;Samples;Min_cycle;Max_cycle;Signal;HPM_P1;HPM_P2
2021/11/01 00:00:21;;;;;;;1999.90;999.90;;;;;;;7.21;49.96;99591.97;5022929;27;96903;-69
2021/11/01 00:02:49;;;;;;;1999.90;999.90;;;;;;;7.19;49.88;99584.84;5007977;28;100944;-70
2021/11/01 00:05:20;;;;;;;1999.90;999.90;;;;;;;7.20;49.99;99597.19;5026521;27;97578;-72
2021/11/01 00:07:48;;;;;;;1999.90;999.90;;;;;;;7.19;50.00;99587.50;5026244;27;96747;-72
2021/11/01 00:10:16;;;;;;;1999.90;999.90;;;;;;;7.21;50.31;99583.13;5026260;27;96994;-72
2021/11/01 00:12:44;;;;;;;1999.90;999.90;;;;;;;7.23;49.87;99576.09;5026855;27;99368;-71
2021/11/01 00:15:13;;;;;;;1999.90;999.90;;;;;;;7.19;49.85;99577.81;5024039;27;99215;-71
2021/11/01 00:17:41;;;;;;;1999.90;999.90;;;;;;;7.15;50.00;99580.38;5023680;27;97380;-71
2021/11/01 00:20:10;;;;;;;1999.90;999.90;;;;;;;7.13;49.96;99575.06;5025674;27;97180;-71
2021/11/01 00:22:40;;;;;;;1999.90;999.90;;;;;;;7.13;49.91;99580.34;5027242;27;98766;-71
2021/11/01 00:25:09;;;;;;;1999.90;999.90;;;;;;;7.10;50.09;99571.47;5025224;27;97878;-71
2021/11/01 00:27:37;;;;;;;1999.90;999.90;;;;;;;7.07;50.05;99571.44;5019169;27;97755;-70
2021/11/01 00:30:07;;;;;;;1999.90;999.90;;;;;;;7.04;50.15;99569.63;5003876;27;97121;-70
2021/11/01 00:32:35;;;;;;;1999.90;999.90;;;;;;;7.06;50.13;99574.94;5026078;27;98646;-69
2021/11/01 00:35:03;;;;;;;1999.90;999.90;;;;;;;7.05;50.34;99567.88;5026528;27;97615;-70
2021/11/01 00:37:31;;;;;;;1999.90;999.90;;;;;;;7.00;50.06;99562.50;5007791;27;96866;-70
2021/11/01 00:40:00;;;;;;;1999.90;999.90;;;;;;;7.00;49.99;99567.78;5025132;27;97742;-71
2021/11/01 00:42:28;;;;;;;1999.90;999.90;;;;;;;7.01;50.20;99566.06;5025229;27;100771;-71
2021/11/01 00:44:56;;;;;;;1999.90;999.90;;;;;;;7.01;50.49;99563.41;5024125;27;99140;-71
2021/11/01 00:47:24;;;;;;;1999.90;999.90;;;;;;;7.02;50.39;99559.88;5008267;27;97688;-70
2021/11/01 00:49:52;;;;;;;1999.90;999.90;;;;;;;7.01;50.04;99552.81;5023683;27;96797;-70
2021/11/01 00:52:23;;;;;;;1999.90;999.90;;;;;;;6.97;50.26;99546.59;5020911;27;99254;-70
2021/11/01 00:54:52;;;;;;;1999.90;999.90;;;;;;;6.91;50.37;99548.25;5023790;27;98449;-70
2021/11/01 00:57:21;;;;;;;1999.90;999.90;;;;;;;6.88;50.51;99543.81;5021883;27;97269;-71
2021/11/01 00:59:49;;;;;;;1999.90;999.90;;;;;;;6.84;50.76;99541.09;5021714;27;97060;-70
2021/11/01 01:02:16;;;;;;;1999.90;999.90;;;;;;;6.81;50.67;99538.41;5023159;27;97632;-71
2021/11/01 01:04:44;;;;;;;1999.90;999.90;;;;;;;6.81;50.28;99548.97;5023510;27;98780;-71
2021/11/01 01:07:12;;;;;;;1999.90;999.90;;;;;;;6.78;50.40;99543.66;5022490;27;98312;-70
2021/11/01 01:09:40;;;;;;;1999.90;999.90;;;;;;;6.79;50.35;99537.47;5025580;27;96685;-70
2021/11/01 01:12:08;;;;;;;1999.90;999.90;;;;;;;6.78;50.67;99543.66;5029250;27;98649;-70
2021/11/01 01:14:42;;;;;;;1999.90;999.90;;;;;;;6.76;50.74;99540.94;5028508;27;97460;-71
2021/11/01 01:17:10;;;;;;;1999.90;999.90;;;;;;;6.75;50.80;99543.56;5025585;27;97155;-71
2021/11/01 01:19:45;;;;;;;1999.90;999.90;;;;;;;6.77;50.52;99531.28;5020499;27;97545;-71
2021/11/01 01:22:14;;;;;;;1999.90;999.90;;;;;;;6.77;50.38;99523.34;5026000;27;98744;-70
2021/11/01 01:24:42;;;;;;;1999.90;999.90;;;;;;;6.76;50.45;99525.09;5023311;27;99026;-70
2021/11/01 01:27:10;;;;;;;1999.90;999.90;;;;;;;6.74;50.42;99536.53;5027368;27;97392;-71
2021/11/01 01:29:38;;;;;;;1999.90;999.90;;;;;;;6.72;50.52;99527.69;5021905;27;100543;-71
2021/11/01 01:32:07;;;;;;;1999.90;999.90;;;;;;;6.72;50.67;99522.38;5027184;27;98927;-71
2021/11/01 01:34:34;;;;;;;1999.90;999.90;;;;;;;6.71;50.35;99521.50;5027291;27;99048;-71
2021/11/01 01:37:02;;;;;;;1999.90;999.90;;;;;;;6.69;50.47;99522.34;5026102;27;100735;-71
2021/11/01 01:39:30;;;;;;;1999.90;999.90;;;;;;;6.70;50.45;99521.47;5025780;27;97267;-70
2021/11/01 01:41:58;;;;;;;1999.90;999.90;;;;;;;6.68;50.76;99516.16;5015169;27;99713;-70
2021/11/01 01:44:26;;;;;;;1999.90;999.90;;;;;;;6.68;50.82;99517.91;5026666;27;100448;-70
2021/11/01 01:46:55;;;;;;;1999.90;999.90;;;;;;;6.67;50.42;99519.66;5027962;27;96767;-71
2021/11/01 01:49:22;;;;;;;1999.90;999.90;;;;;;;6.65;50.42;99520.50;5027501;27;97463;-70
2021/11/01 01:51:50;;;;;;;1999.90;999.90;;;;;;;6.64;50.47;99527.53;5025771;27;98700;-71
2021/11/01 01:54:18;;;;;;;1999.90;999.90;;;;;;;6.61;50.89;99529.25;5026489;27;98324;-70
2021/11/01 01:56:46;;;;;;;1999.90;999.90;;;;;;;6.60;50.57;99527.44;5024898;27;97427;-71
2021/11/01 01:59:18;;;;;;;1999.90;999.90;;;;;;;6.58;50.96;99529.22;5024439;27;98630;-71
2021/11/01 02:01:47;;;;;;;1999.90;999.90;;;;;;;6.56;50.84;99525.66;5027390;27;96995;-70
2021/11/01 02:04:20;;;;;;;1999.90;999.90;;;;;;;6.56;50.85;99525.66;5024356;27;98784;-70
2021/11/01 02:07:11;;;;;;;1999.90;999.90;;;;;;;6.51;50.90;99522.00;5027557;27;96969;-70
2021/11/01 02:09:48;;;;;;;1999.90;999.90;;;;;;;6.55;51.02;99526.50;5023523;27;97901;-70
2021/11/01 02:12:19;;;;;;;1999.90;999.90;;;;;;;6.57;51.04;99516.84;5026015;27;100969;-70
2021/11/01 02:14:50;;;;;;;1999.90;999.90;;;;;;;6.55;50.89;99513.28;5027150;27;96955;-71
2021/11/01 02:17:21;;;;;;;1999.90;999.90;;;;;;;6.54;50.87;99514.16;5025201;27;98277;-69
2021/11/01 02:19:52;;;;;;;1999.90;999.90;;;;;;;6.54;51.02;99500.94;5026075;27;96829;-70
2021/11/01 02:22:31;;;;;;;1999.90;999.90;;;;;;;6.53;51.15;99499.16;5019259;27;99223;-71
2021/11/01 02:25:05;;;;;;;1999.90;999.90;;;;;;;6.53;51.14;99504.44;5027639;27;98654;-70
2021/11/01 02:27:37;;;;;;;1999.90;999.90;;;;;;;6.55;50.77;99497.41;5033930;27;98879;-71
2021/11/01 02:30:06;;;;;;;1999.90;999.90;;;;;;;6.55;51.04;99498.31;5023200;27;96841;-70
2021/11/01 02:32:36;;;;;;;1999.90;999.90;;;;;;;6.54;50.84;99483.34;5025678;27;99545;-70
2021/11/01 02:35:05;;;;;;;1999.90;999.90;;;;;;;6.57;50.95;99501.88;5024814;27;98807;-71
2021/11/01 02:37:33;;;;;;;1999.90;999.90;;;;;;;6.55;50.95;99505.34;5009063;27;97039;-71
2021/11/01 02:40:01;;;;;;;1999.90;999.90;;;;;;;6.54;50.99;99519.44;5008208;27;96928;-70
2021/11/01 02:42:29;;;;;;;1999.90;999.90;;;;;;;6.50;50.80;99530.81;5025621;27;97212;-71
2021/11/01 02:45:00;;;;;;;1999.90;999.90;;;;;;;6.49;51.10;99523.75;5026165;27;97738;-71
2021/11/01 02:47:29;;;;;;;1999.90;999.90;;;;;;;6.49;50.89;99522.00;5011438;27;97229;-71
2021/11/01 02:49:59;;;;;;;1999.90;999.90;;;;;;;6.48;51.13;99521.97;5027963;27;96882;-71
2021/11/01 02:52:28;;;;;;;1999.90;999.90;;;;;;;6.48;51.30;99517.59;5024565;27;96848;-70
2021/11/01 02:54:57;;;;;;;1999.90;999.90;;;;;;;6.49;50.90;99522.00;5026691;27;98066;-71
2021/11/01 02:57:25;;;;;;;1999.90;999.90;;;;;;;6.47;51.27;99513.13;5025598;27;97605;-71
2021/11/01 02:59:53;;;;;;;1999.90;999.90;;;;;;;6.48;50.87;99519.31;5022934;27;97118;-70
2021/11/01 03:02:22;;;;;;;1999.90;999.90;;;;;;;6.49;51.19;99515.84;5019392;27;99766;-70
2021/11/01 03:04:50;;;;;;;1999.90;999.90;;;;;;;6.48;51.34;99521.97;5023589;27;99260;-71
2021/11/01 03:07:18;;;;;;;1999.90;999.90;;;;;;;6.49;50.97;99518.47;5023992;27;97548;-70
2021/11/01 03:09:47;;;;;;;1999.90;999.90;;;;;;;6.51;51.35;99516.72;5026286;27;97421;-70
2021/11/01 03:12:18;;;;;;;1999.90;999.90;;;;;;;6.50;51.20;99520.25;5024281;27;98880;-71
2021/11/01 03:14:54;;;;;;;1999.90;999.90;;;;;;;6.50;51.40;99509.69;5023107;27;101106;-71
2021/11/01 03:17:26;;;;;;;1999.90;999.90;;;;;;;6.50;50.99;99510.56;5009879;28;97410;-71
2021/11/01 03:19:58;;;;;;;1999.90;999.90;;;;;;;6.52;51.18;99510.59;5024651;27;97223;-71
2021/11/01 03:22:27;;;;;;;1999.90;999.90;;;;;;;6.51;50.84;99522.91;5025401;27;96779;-69
2021/11/01 03:25:04;;;;;;;1999.90;999.90;;;;;;;6.49;51.01;99519.34;5025748;27;99751;-71
2021/11/01 03:27:35;;;;;;;1999.90;999.90;;;;;;;6.49;51.17;99529.06;5025314;27;96998;-70
2021/11/01 03:30:04;;;;;;;1999.90;999.90;;;;;;;6.49;50.98;99535.19;5025283;27;96801;-70
2021/11/01 03:32:33;;;;;;;1999.90;999.90;;;;;;;6.48;51.31;99527.25;5021904;27;97804;-70
2021/11/01 03:35:02;;;;;;;1999.90;999.90;;;;;;;6.48;51.16;99521.97;5027838;27;96879;-70
2021/11/01 03:37:30;;;;;;;1999.90;999.90;;;;;;;6.49;51.19;99529.06;5025893;27;96771;-71
2021/11/01 03:39:59;;;;;;;1999.90;999.90;;;;;;;6.50;50.96;99541.38;5024742;27;97799;-70
2021/11/01 03:42:27;;;;;;;1999.90;999.90;;;;;;;6.48;51.48;99537.81;5010330;27;98642;-71
2021/11/01 03:45:00;;;;;;;1999.90;999.90;;;;;;;6.46;51.35;99536.91;5019381;27;97742;-71
2021/11/01 03:47:32;;;;;;;1999.90;999.90;;;;;;;6.46;51.22;99539.53;5024296;27;96958;-71
2021/11/01 03:50:05;;;;;;;1999.90;999.90;;;;;;;6.45;51.08;99538.63;5021042;27;97543;-70
2021/11/01 03:52:35;;;;;;;1999.90;999.90;;;;;;;6.45;51.36;99537.78;5024172;27;98047;-70
2021/11/01 03:55:04;;;;;;;1999.90;999.90;;;;;;;6.44;51.43;99535.97;5025502;27;98305;-70
2021/11/01 03:57:31;;;;;;;1999.90;999.90;;;;;;;6.42;51.21;99538.59;5024312;27;97110;-70
2021/11/01 03:59:59;;;;;;;1999.90;999.90;;;;;;;6.43;51.29;99536.84;5025992;27;97214;-71
2021/11/01 04:02:27;;;;;;;1999.90;999.90;;;;;;;6.43;51.52;99536.84;5026134;27;97619;-71
2021/11/01 04:04:55;;;;;;;1999.90;999.90;;;;;;;6.43;51.17;99547.44;5024695;27;99228;-71
2021/11/01 04:07:24;;;;;;;1999.90;999.90;;;;;;;6.42;51.16;99532.41;5026246;27;96834;-71
2021/11/01 04:09:54;;;;;;;1999.90;999.90;;;;;;;6.41;51.47;99542.13;5024138;27;98196;-71
2021/11/01 04:12:22;;;;;;;1999.90;999.90;;;;;;;6.38;51.69;99541.19;5024688;27;99428;-71
2021/11/01 04:14:54;;;;;;;1999.90;999.90;;;;;;;6.38;51.70;99533.25;5028317;27;98138;-71
2021/11/01 04:17:24;;;;;;;1999.90;999.90;;;;;;;6.39;51.52;99527.09;5023184;27;97151;-71
2021/11/01 04:20:03;;;;;;;1999.90;999.90;;;;;;;6.38;51.33;99515.63;5024403;27;97972;-70
2021/11/01 04:22:35;;;;;;;1999.90;999.90;;;;;;;6.38;51.64;99498.91;5023128;27;96826;-71
2021/11/01 04:25:03;;;;;;;1999.90;999.90;;;;;;;6.37;51.36;99534.09;5024179;27;99225;-70
2021/11/01 04:27:31;;;;;;;1999.90;999.90;;;;;;;6.36;51.25;99538.47;5016042;27;97001;-70
2021/11/01 04:30:00;;;;;;;1999.90;999.90;;;;;;;6.35;51.63;99544.63;5023195;27;96939;-71
2021/11/01 04:32:34;;;;;;;1999.90;999.90;;;;;;;6.35;51.28;99547.28;5022381;27;97762;-71
2021/11/01 04:35:04;;;;;;;1999.90;999.90;;;;;;;6.33;51.47;99545.47;5022776;27;99466;-70
2021/11/01 04:37:33;;;;;;;1999.90;999.90;;;;;;;6.31;51.38;99561.28;5024463;27;96822;-71
2021/11/01 04:40:15;;;;;;;1999.90;999.90;;;;;;;6.26;51.75;99562.94;5022641;27;98157;-72
2021/11/01 04:43:14;;;;;;;1999.90;999.90;;;;;;;6.20;51.75;99576.00;5027001;27;97276;-70
2021/11/01 04:54:01;;;;;;;1999.90;999.90;;;;;;;6.03;52.28;99604.72;5023666;27;98178;-73
2021/11/01 04:56:29;;;;;;;1999.90;999.90;;;;;;;6.00;52.13;99593.22;5024043;27;97644;-70
2021/11/01 04:58:58;;;;;;;1999.90;999.90;;;;;;;5.99;52.23;99594.97;5025324;27;97770;-69
2021/11/01 05:01:31;;;;;;;1999.90;999.90;;;;;;;5.98;51.88;99602.84;5021688;27;97620;-70
2021/11/01 05:04:03;;;;;;;1999.90;999.90;;;;;;;5.97;52.34;99601.97;5021369;27;99372;-70
2021/11/01 05:06:31;;;;;;;1999.90;999.90;;;;;;;5.95;52.42;99608.97;5023667;27;99696;-70
2021/11/01 05:09:06;;;;;;;1999.90;999.90;;;;;;;5.94;52.02;99612.44;5025530;27;97188;-70
2021/11/01 05:11:38;;;;;;;1999.90;999.90;;;;;;;5.94;52.28;99620.38;5024752;27;97261;-70
2021/11/01 05:14:06;;;;;;;1999.90;999.90;;;;;;;5.94;52.29;99614.22;5024219;27;98813;-70
2021/11/01 05:16:46;;;;;;;1999.90;999.90;;;;;;;5.93;52.40;99610.69;5021632;27;100784;-70
2021/11/01 05:19:21;;;;;;;1999.90;999.90;;;;;;;5.91;52.46;99607.13;5024159;27;98389;-69
2021/11/01 05:21:59;;;;;;;1999.90;999.90;;;;;;;5.93;52.52;99613.31;5024026;27;96620;-70
2021/11/01 05:24:33;;;;;;;1999.90;999.90;;;;;;;5.93;52.14;99610.69;5023158;27;99172;-70
2021/11/01 05:27:21;;;;;;;1999.90;999.90;;;;;;;5.95;52.09;99614.25;5022121;27;101557;-70
2021/11/01 05:29:51;;;;;;;1999.90;999.90;;;;;;;5.97;52.32;99612.53;5025055;27;96854;-70
2021/11/01 05:32:21;;;;;;;1999.90;999.90;;;;;;;5.97;52.02;99612.53;5022139;27;96947;-70
2021/11/01 05:34:49;;;;;;;1999.90;999.90;;;;;;;5.99;52.14;99608.19;5022965;27;99340;-70
2021/11/01 05:37:17;;;;;;;1999.90;999.90;;;;;;;6.01;52.19;99614.34;5022586;27;100368;-70
2021/11/01 05:39:49;;;;;;;1999.90;999.90;;;;;;;6.04;52.13;99625.00;5020398;27;98207;-69
2021/11/01 05:42:17;;;;;;;1999.90;999.90;;;;;;;6.06;52.38;99618.00;5019087;27;97129;-70
2021/11/01 05:44:45;;;;;;;1999.90;999.90;;;;;;;6.10;51.85;99625.09;5020463;27;100820;-70
2021/11/01 05:47:12;;;;;;;1999.90;999.90;;;;;;;6.11;52.33;99616.34;5022947;27;97594;-70
2021/11/01 05:49:40;;;;;;;1999.90;999.90;;;;;;;6.12;51.91;99618.09;5022568;27;97049;-70
2021/11/01 05:52:15;;;;;;;1999.90;999.90;;;;;;;6.14;51.65;99626.94;5015269;27;96538;-71
2021/11/01 05:54:44;;;;;;;1999.90;999.90;;;;;;;6.17;51.82;99631.41;5005920;27;100260;-72
2021/11/01 05:57:20;;;;;;;1999.90;999.90;;;;;;;6.17;51.90;99621.75;5024088;27;98931;-70
2021/11/01 06:00:15;;;;;;;1999.90;999.90;;;;;;;6.19;52.03;99619.13;5006523;27;97512;-71
2021/11/01 06:02:48;;;;;;;1999.90;999.90;;;;;;;6.19;51.96;99619.13;5026598;27;97562;-72
2021/11/01 06:05:26;;;;;;;1999.90;999.90;;;;;;;6.20;52.15;99627.09;5025044;27;100593;-74
2021/11/01 06:08:09;;;;;;;1999.90;999.90;;;;;;;6.22;51.99;99629.75;5025408;27;97626;-71
2021/11/01 06:10:51;;;;;;;1999.90;999.90;;;;;;;6.25;52.26;99625.41;5024929;27;97385;-72
2021/11/01 06:13:27;;;;;;;1999.90;999.90;;;;;;;6.30;52.22;99627.31;5025973;27;97221;-71
2021/11/01 06:15:55;;;;;;;1999.90;999.90;;;;;;;6.33;51.82;99628.25;5026019;27;97886;-72
2021/11/01 06:18:29;;;;;;;1999.90;999.90;;;;;;;6.37;52.40;99623.91;5024199;27;100955;-71
2021/11/01 06:20:57;;;;;;;1999.90;999.90;;;;;;;6.40;52.21;99638.06;5022591;27;96979;-72
2021/11/01 06:23:25;;;;;;;1999.90;999.90;;;;;;;6.44;52.09;99637.28;5028193;27;97130;-72
2021/11/01 06:25:52;;;;;;;1999.90;999.90;;;;;;;6.50;51.77;99640.06;5027890;27;98793;-71
2021/11/01 06:28:21;;;;;;;1999.90;999.90;;;;;;;6.54;51.74;99647.19;5020591;27;97593;-71
2021/11/01 06:30:52;;;;;;;1999.90;999.90;;;;;;;6.57;51.86;99647.22;5025399;27;97337;-70
2021/11/01 06:41:49;;;;;;;1999.90;999.90;;;;;;;6.65;51.87;99658.81;5025748;27;98153;-72
2021/11/01 06:44:27;;;;;;;1999.90;999.90;;;;;;;6.68;51.75;99673.84;5027894;27;97570;-71
2021/11/01 06:49:48;;;;;;;1999.90;999.90;;;;;;;6.71;51.74;99685.38;5028077;27;96940;-71
2021/11/01 06:52:43;;;;;;;1999.90;999.90;;;;;;;6.71;52.06;99690.66;5028467;27;96742;-72
2021/11/01 06:55:22;;;;;;;1999.90;999.90;;;;;;;6.73;51.95;99703.91;5009693;28;97402;-72
2021/11/01 06:58:00;;;;;;;1999.90;999.90;;;;;;;6.74;51.86;99711.00;5027662;27;99065;-71
2021/11/01 07:14:25;;;;;;;1999.90;999.90;;;;;;;6.67;52.53;99748.75;5026021;27;96800;-72
2021/11/01 07:16:58;;;;;;;1999.90;999.90;;;;;;;6.69;52.39;99769.03;5092258;22;96837;-70
2021/11/01 07:19:36;;;;;;;1999.90;999.90;;;;;;;6.67;52.77;99772.53;4954752;28;99796;-71
2021/11/01 07:25:31;;;;;;;1999.90;999.90;;;;;;;6.68;52.89;99798.09;4972956;28;97116;-72
2021/11/01 08:24:20;;;;;;;1999.90;999.90;;;;;;;6.81;53.96;99858.31;4908999;28;96810;-72
2021/11/01 08:35:51;;;;;;;1999.90;999.90;;;;;;;6.91;54.09;99847.03;4909884;28;97246;-72
2021/11/01 08:47:09;;;;;;;1999.90;999.90;;;;;;;6.95;54.93;99830.38;4934865;28;97224;-75
2021/11/01 09:03:51;;;;;;;1999.90;999.90;;;;;;;6.99;54.52;99840.19;4928672;28;98952;-76
2021/11/01 09:20:05;;;;;;;1999.90;999.90;;;;;;;7.05;54.87;99803.28;4929164;28;96795;-74
2021/11/01 09:23:06;;;;;;;1999.90;999.90;;;;;;;7.04;54.60;99798.84;4927417;28;97637;-75
2021/11/01 09:28:31;;;;;;;1999.90;999.90;;;;;;;7.06;54.45;99819.19;4923635;28;97159;-75
2021/11/01 09:36:34;;;;;;;1999.90;999.90;;;;;;;7.07;54.80;99804.22;4930074;28;98910;-74
2021/11/01 09:41:59;;;;;;;1999.90;999.90;;;;;;;7.06;54.70;99823.56;5034991;22;1309374;-74
2021/11/01 09:44:29;;;;;;;1999.90;999.90;;;;;;;7.06;54.93;99831.50;5031003;27;96983;-76
2021/11/01 09:46:57;;;;;;;1999.90;999.90;;;;;;;7.07;54.54;99828.88;5027973;27;98100;-74
2021/11/01 09:49:26;;;;;;;1999.90;999.90;;;;;;;7.08;54.83;99824.50;5023952;27;97605;-74
2021/11/01 09:51:56;;;;;;;1999.90;999.90;;;;;;;7.10;54.87;99834.25;5024821;27;97372;-76
2021/11/01 09:54:26;;;;;;;1999.90;999.90;;;;;;;7.10;54.78;99839.53;5022995;27;97079;-74
2021/11/01 09:57:02;;;;;;;1999.90;999.90;;;;;;;7.10;54.71;99838.66;5023023;27;100363;-74
2021/11/01 09:59:33;;;;;;;1999.90;999.90;;;;;;;7.11;54.76;99840.41;5025598;27;98850;-74
2021/11/01 10:02:11;;;;;;;1999.90;999.90;;;;;;;7.09;55.07;99843.03;5026735;27;96895;-74
2021/11/01 10:04:42;;;;;;;1999.90;999.90;;;;;;;7.08;55.05;99841.25;5027372;27;97398;-75
2021/11/01 10:07:19;;;;;;;1999.90;999.90;;;;;;;7.11;55.08;99845.69;5025044;27;97987;-74
2021/11/01 10:09:49;;;;;;;1999.90;999.90;;;;;;;7.12;54.84;99836.91;5012548;27;98974;-75
2021/11/01 10:12:20;;;;;;;1999.90;999.90;;;;;;;7.13;54.92;99836.94;5023496;27;97303;-75
2021/11/01 10:14:51;;;;;;;1999.90;999.90;;;;;;;7.17;55.01;99835.25;5024440;27;98440;-75
2021/11/01 10:17:34;;;;;;;1999.90;999.90;;;;;;;7.17;54.78;99836.16;5023474;27;97976;-75
2021/11/01 10:20:05;;;;;;;1999.90;999.90;;;;;;;7.18;54.57;99831.75;5024706;27;99176;-76
2021/11/01 10:22:34;;;;;;;1999.90;999.90;;;;;;;7.18;55.00;99832.63;5024416;27;96740;-75
2021/11/01 10:25:04;;;;;;;1999.90;999.90;;;;;;;7.21;54.98;99845.03;5022472;27;97253;-75
2021/11/01 10:27:35;;;;;;;1999.90;999.90;;;;;;;7.23;54.95;99838.03;5020975;27;100520;-76
2021/11/01 10:30:05;;;;;;;1999.90;999.90;;;;;;;7.25;54.70;99831.88;5018643;27;98758;-74
2021/11/01 10:32:37;;;;;;;1999.90;999.90;;;;;;;7.24;54.89;99829.22;5021614;27;96781;-75
2021/11/01 10:35:17;;;;;;;1999.90;999.90;;;;;;;7.24;54.91;99831.84;5006250;28;96825;-76
2021/11/01 10:38:09;;;;;;;1999.90;999.90;;;;;;;7.23;55.06;99825.69;5021512;27;98523;-76
2021/11/01 10:40:41;;;;;;;1999.90;999.90;;;;;;;7.27;54.86;99828.38;5023430;27;100247;-75
2021/11/01 10:43:26;;;;;;;1999.90;999.90;;;;;;;7.27;55.15;99829.28;5024203;27;96906;-75
2021/11/01 10:46:25;;;;;;;1999.90;999.90;;;;;;;7.23;54.97;99835.38;5023055;27;97617;-75
2021/11/01 10:57:31;;;;;;;1999.90;999.90;;;;;;;7.20;55.33;99822.06;5010945;28;96782;-74
2021/11/01 11:11:21;;;;;;;1999.90;999.90;;;;;;;7.29;55.44;99787.84;5010221;28;97641;-75
2021/11/01 11:13:56;;;;;;;1999.90;999.90;;;;;;;7.29;55.09;99793.13;5013740;27;99371;-75
2021/11/01 11:16:49;;;;;;;1999.90;999.90;;;;;;;7.31;55.48;99786.13;5010812;28;97082;-74
2021/11/01 11:19:25;;;;;;;1999.90;999.90;;;;;;;7.31;55.43;99785.25;5010349;28;98367;-76
2021/11/01 11:27:54;;;;;;;1999.90;999.90;;;;;;;7.30;55.29;99794.94;5006020;28;97612;-74
2021/11/01 11:39:20;;;;;;;1999.90;999.90;;;;;;;7.33;55.78;99783.53;5007745;28;97905;-76
2021/11/01 11:47:43;;;;;;;1999.90;999.90;;;;;;;7.32;55.62;99785.28;4976332;28;99626;-76
2021/11/01 11:50:17;;;;;;;1999.90;999.90;;;;;;;7.34;55.41;99778.25;5009999;28;96720;-74
2021/11/01 11:52:46;;;;;;;1999.90;999.90;;;;;;;7.37;55.55;99780.06;5009350;28;96723;-76
2021/11/01 11:55:20;;;;;;;1999.90;999.90;;;;;;;7.37;55.38;99780.94;5008670;28;98823;-75
2021/11/01 11:57:58;;;;;;;1999.90;999.90;;;;;;;7.38;55.58;99777.47;5008509;28;97883;-76
2021/11/01 12:00:28;;;;;;;1999.90;999.90;;;;;;;7.40;55.40;99783.63;5010064;28;97021;-75
2021/11/01 12:03:09;;;;;;;1999.90;999.90;;;;;;;7.40;55.77;99775.69;5007571;28;96786;-75
2021/11/01 12:05:42;;;;;;;1999.90;999.90;;;;;;;7.39;55.79;99784.53;5006548;28;98873;-75
2021/11/01 12:08:13;;;;;;;1999.90;999.90;;;;;;;7.41;55.62;99780.19;5008798;28;97569;-75
2021/11/01 12:14:13;;;;;;;1999.90;999.90;;;;;;;7.43;55.53;99789.03;5009013;28;97409;-76
2021/11/01 12:17:06;;;;;;;1999.90;999.90;;;;;;;7.43;55.82;99781.09;5007362;28;99175;-75
2021/11/01 12:19:34;;;;;;;1999.90;999.90;;;;;;;7.47;55.41;99782.94;5008392;28;98040;-77
2021/11/01 12:22:09;;;;;;;1999.90;999.90;;;;;;;7.45;55.60;99778.47;5008585;28;98340;-73
2021/11/01 12:24:48;;;;;;;1999.90;999.90;;;;;;;7.46;55.33;99772.31;5010150;28;97423;-77
2021/11/01 12:27:17;;;;;;;1999.90;999.90;;;;;;;7.48;55.39;99771.47;5014240;27;99446;-75
2021/11/01 12:29:46;;;;;;;1999.90;999.90;;;;;;;7.48;55.57;99773.22;5007085;28;98865;-75
2021/11/01 12:32:14;;;;;;;1999.90;999.90;;;;;;;7.45;55.54;99763.50;5001649;28;97436;-75
2021/11/01 12:34:54;;;;;;;1999.90;999.90;;;;;;;7.41;56.18;99756.38;4990569;28;97136;-75
2021/11/01 12:37:26;;;;;;;1999.90;999.90;;;;;;;7.41;55.99;99766.94;5006843;28;97665;-75
2021/11/01 12:40:04;;;;;;;1999.90;999.90;;;;;;;7.39;56.10;99763.34;5008712;28;98714;-76
2021/11/01 12:42:43;;;;;;;1999.90;999.90;;;;;;;7.39;55.69;99760.69;5022621;27;96869;-74
2021/11/01 12:59:14;;;;;;;1999.90;999.90;;;;;;;7.49;55.59;99737.97;5009261;28;100994;-75
2021/11/01 13:01:49;;;;;;;1999.90;999.90;;;;;;;7.50;55.53;99751.22;5009821;28;99141;-73
2021/11/01 13:04:34;;;;;;;1999.90;999.90;;;;;;;7.51;55.78;99768.00;5010289;28;96862;-76
2021/11/01 13:07:08;;;;;;;1999.90;999.90;;;;;;;7.52;55.79;99773.31;5007235;28;96975;-76
2021/11/01 13:09:41;;;;;;;1999.90;999.90;;;;;;;7.53;55.41;99777.75;5008675;28;97755;-75
2021/11/01 13:17:53;;;;;;;1999.90;999.90;;;;;;;7.54;55.77;99768.06;5004199;28;96927;-75
2021/11/01 13:20:23;;;;;;;1999.90;999.90;;;;;;;7.53;55.78;99761.84;5007675;28;97890;-76
2021/11/01 13:22:56;;;;;;;1999.90;999.90;;;;;;;7.55;55.67;99769.81;5006733;28;100461;-76
2021/11/01 13:25:29;;;;;;;1999.90;999.90;;;;;;;7.55;55.75;99757.47;5006303;28;99141;-75
2021/11/01 13:28:20;;;;;;;1999.90;999.90;;;;;;;7.56;55.58;99754.00;4990779;28;97814;-76
2021/11/01 13:36:27;;;;;;;1999.90;999.90;;;;;;;7.57;55.60;99774.28;5003940;28;97099;-74
2021/11/01 13:38:59;;;;;;;1999.90;999.90;;;;;;;7.54;55.58;99778.63;5008595;28;97164;-75
2021/11/01 13:41:29;;;;;;;1999.90;999.90;;;;;;;7.54;55.57;99782.19;5005671;28;98940;-75
2021/11/01 13:44:07;;;;;;;1999.90;999.90;;;;;;;7.48;55.75;99779.41;5004771;28;101094;-75
2021/11/01 13:46:35;;;;;;;1999.90;999.90;;;;;;;7.50;55.65;99780.34;5006429;28;97257;-75
2021/11/01 13:49:06;;;;;;;1999.90;999.90;;;;;;;7.49;55.92;99770.59;5006800;28;96824;-74
2021/11/01 13:51:34;;;;;;;1999.90;999.90;;;;;;;7.50;55.54;99776.78;5006188;28;96802;-76
2021/11/01 13:54:05;;;;;;;1999.90;999.90;;;;;;;7.50;55.95;99783.00;5005556;28;97960;-75
2021/11/01 13:56:40;;;;;;;1999.90;999.90;;;;;;;7.50;55.87;99783.00;5006450;28;97402;-75
2021/11/01 13:59:24;;;;;;;1999.90;999.90;;;;;;;7.51;55.86;99771.53;5006008;28;96796;-76
2021/11/01 14:02:16;;;;;;;1999.90;999.90;;;;;;;7.51;55.65;99781.25;5006230;28;97882;-75
2021/11/01 14:13:17;;;;;;;1999.90;999.90;;;;;;;7.53;55.56;99768.94;5004079;28;97727;-75
2021/11/01 14:18:41;;;;;;;1999.90;999.90;;;;;;;7.56;55.73;99788.41;4996448;28;97082;-77
2021/11/01 14:27:08;;;;;;;1999.90;999.90;;;;;;;7.57;55.63;99791.91;5003694;28;99261;-75
2021/11/01 15:00:50;;;;;;;1999.90;999.90;;;;;;;7.60;55.26;99762.88;4973998;28;97780;-75
2021/11/01 15:06:56;;;;;;;1999.90;999.90;;;;;;;7.59;55.47;99758.41;5008055;28;97146;-75
2021/11/01 15:15:01;;;;;;;1999.90;999.90;;;;;;;7.57;55.37;99771.63;5006924;28;96953;-75
2021/11/01 15:17:40;;;;;;;1999.90;999.90;;;;;;;7.56;55.42;99771.63;5006436;28;96930;-74
2021/11/01 15:22:58;;;;;;;1999.90;999.90;;;;;;;7.54;55.49;99768.94;5003102;28;100981;-75
2021/11/01 15:28:30;;;;;;;1999.90;999.90;;;;;;;7.53;55.60;99783.03;5009067;28;97147;-75
2021/11/01 15:31:33;;;;;;;1999.90;999.90;;;;;;;7.52;55.67;99777.72;5022673;27;99604;-75
2021/11/01 15:40:12;;;;;;;1999.90;999.90;;;;;;;7.50;55.51;99772.41;5009502;28;97580;-76
2021/11/01 16:16:35;;;;;;;1999.90;999.90;;;;;;;7.34;55.88;99770.31;4991937;28;100764;-73
2021/11/01 16:19:05;;;;;;;1999.90;999.90;;;;;;;7.35;55.92;99777.38;5007646;28;98354;-73
2021/11/01 16:21:33;;;;;;;1999.90;999.90;;;;;;;7.33;56.08;99771.16;4984376;28;98093;-76
2021/11/01 16:24:01;;;;;;;1999.90;999.90;;;;;;;7.34;55.81;99770.31;5007079;28;96798;-75
2021/11/01 16:26:32;;;;;;;1999.90;999.90;;;;;;;7.33;55.83;99768.53;5004499;28;100722;-72
2021/11/01 16:29:05;;;;;;;1999.90;999.90;;;;;;;7.33;56.10;99767.66;4990310;28;99481;-71
2021/11/01 16:31:42;;;;;;;1999.90;999.90;;;;;;;7.33;55.99;99770.31;4987764;28;97000;-72
2021/11/01 16:34:15;;;;;;;1999.90;999.90;;;;;;;7.30;56.10;99763.19;5004063;28;97364;-74
2021/11/01 16:39:47;;;;;;;1999.90;999.90;;;;;;;7.27;55.93;99787.81;5008792;28;98134;-75
2021/11/01 16:42:21;;;;;;;1999.90;999.90;;;;;;;7.24;56.13;99793.06;5006548;28;97614;-74
2021/11/01 16:44:49;;;;;;;1999.90;999.90;;;;;;;7.23;55.99;99788.66;5008030;28;97322;-76
2021/11/01 16:47:19;;;;;;;1999.90;999.90;;;;;;;7.23;56.32;99793.03;4999889;28;99984;-76
2021/11/01 16:49:50;;;;;;;1999.90;999.90;;;;;;;7.22;56.01;99791.25;4985044;28;101015;-74